createdAt,value
2023-04-01T00:01:38.916Z,99636.22
2023-04-01T00:04:06.830Z,99636.66
2023-04-01T00:06:37.646Z,99640.28
2023-04-01T00:09:05.556Z,99635.88
2023-04-01T00:11:33.779Z,99635.81
2023-04-01T00:14:01.558Z,99631.03
2023-04-01T00:16:29.439Z,99638.28
2023-04-01T00:18:57.145Z,99634.69
2023-04-01T00:21:28.118Z,99632.25
2023-04-01T00:23:57.748Z,99640.34
2023-04-01T00:26:27.861Z,99641.56
2023-04-01T00:28:56.164Z,99641.56
2023-04-01T00:31:26.209Z,99639.53
2023-04-01T00:33:55.041Z,99650.84
2023-04-01T00:36:24.879Z,99640.34
2023-04-01T00:38:53.619Z,99646.00
2023-04-01T00:41:24.102Z,99643.63
2023-04-01T00:43:53.186Z,99640.41
2023-04-01T00:46:22.009Z,99647.19
2023-04-01T00:48:52.177Z,99649.22
2023-04-01T00:51:30.084Z,99659.72
2023-04-01T00:54:00.190Z,99658.13
2023-04-01T00:57:02.329Z,99664.91
2023-04-01T00:59:50.762Z,99653.66
2023-04-01T01:02:22.747Z,99663.75
2023-04-01T01:04:53.301Z,99656.91
2023-04-01T01:07:38.584Z,99655.69
2023-04-01T01:10:25.017Z,99650.88
2023-04-01T01:13:22.733Z,99652.50
2023-04-01T01:16:01.322Z,99664.16
2023-04-01T01:18:52.099Z,99658.91
2023-04-01T01:21:31.718Z,99670.19
2023-04-01T01:24:08.183Z,99675.03
2023-04-01T01:26:45.069Z,99662.94
2023-04-01T01:29:21.653Z,99662.09
2023-04-01T01:32:07.762Z,99654.47
2023-04-01T01:34:56.909Z,99642.03
2023-04-01T01:37:28.463Z,99639.59
2023-04-01T01:40:04.785Z,99646.03
2023-04-01T01:42:41.189Z,99633.97
2023-04-01T01:45:11.272Z,99648.06
2023-04-01T01:47:41.615Z,99658.56
2023-04-01T01:50:11.677Z,99657.75
2023-04-01T01:52:39.572Z,99652.88
2023-04-01T01:55:29.533Z,99637.22
2023-04-01T01:58:01.980Z,99636.41
2023-04-01T02:00:30.116Z,99644.47
2023-04-01T02:03:01.485Z,99648.09
2023-04-01T02:05:33.863Z,99640.03
2023-04-01T02:08:15.218Z,99642.88
2023-04-01T02:10:50.142Z,99642.84
2023-04-01T02:13:31.304Z,99644.88
2023-04-01T02:16:03.419Z,99640.44
2023-04-01T02:18:38.401Z,99646.09
2023-04-01T02:21:12.178Z,99649.72
2023-04-01T02:23:42.828Z,99650.56
2023-04-01T02:26:20.032Z,99646.53
2023-04-01T02:28:49.827Z,99652.16
2023-04-01T02:31:18.274Z,99651.72
2023-04-01T02:33:49.139Z,99638.84
2023-04-01T02:36:20.044Z,99638.44
2023-04-01T02:38:48.895Z,99642.09
2023-04-01T02:41:16.441Z,99642.50
2023-04-01T02:43:46.076Z,99632.47
2023-04-01T02:46:19.728Z,99640.47
2023-04-01T02:48:47.655Z,99644.91
2023-04-01T02:51:21.729Z,99637.69
2023-04-01T02:53:53.344Z,99638.94
2023-04-01T02:56:23.594Z,99640.94
2023-04-01T02:58:53.131Z,99646.94
2023-04-01T03:01:22.093Z,99648.16
2023-04-01T03:03:51.737Z,99663.84
2023-04-01T03:06:19.471Z,99680.00
2023-04-01T03:08:47.563Z,99671.13
2023-04-01T03:11:15.695Z,99663.88
2023-04-01T03:13:43.476Z,99658.66
2023-04-01T03:16:11.905Z,99667.88
2023-04-01T03:18:39.589Z,99665.06
2023-04-01T03:21:23.152Z,99668.69
2023-04-01T03:23:54.320Z,99667.09
2023-04-01T03:26:22.542Z,99660.69
2023-04-01T03:28:50.439Z,99659.06
2023-04-01T03:31:20.448Z,99651.03
2023-04-01T03:33:54.198Z,99644.16
2023-04-01T03:36:27.201Z,99654.63
2023-04-01T03:38:55.923Z,99659.84
2023-04-01T03:41:38.065Z,99663.53
2023-04-01T03:44:07.091Z,99653.41
2023-04-01T03:46:38.175Z,99667.16
2023-04-01T03:49:14.065Z,99677.59
2023-04-01T03:51:44.345Z,99675.22
2023-04-01T03:54:12.636Z,99681.25
2023-04-01T03:56:40.463Z,99690.53
2023-04-01T03:59:09.184Z,99697.38
2023-04-01T04:01:39.523Z,99701.81
2023-04-01T04:04:07.407Z,99701.78
2023-04-01T04:06:35.067Z,99696.94
2023-04-01T04:09:03.526Z,99689.28
2023-04-01T04:11:33.380Z,99690.50
2023-04-01T04:14:03.997Z,99702.19
2023-04-01T04:16:31.783Z,99697.34
2023-04-01T04:19:02.954Z,99691.31
2023-04-01T04:21:30.953Z,99696.16
2023-04-01T04:24:02.854Z,99692.13
2023-04-01T04:26:50.321Z,99699.34
2023-04-01T04:29:18.138Z,99702.56
2023-04-01T04:31:54.632Z,99705.00
2023-04-01T04:34:23.468Z,99700.59
2023-04-01T04:36:52.187Z,99706.63
2023-04-01T04:39:20.707Z,99690.56
2023-04-01T04:41:48.275Z,99694.19
2023-04-01T04:44:16.061Z,99702.63
2023-04-01T04:46:44.282Z,99708.25
2023-04-01T04:49:17.424Z,99703.44
2023-04-01T04:51:45.097Z,99705.03
2023-04-01T04:54:15.552Z,99718.31
2023-04-01T04:56:54.048Z,99722.34
2023-04-01T04:59:22.659Z,99719.56
2023-04-01T05:02:08.026Z,99729.59
2023-04-01T05:04:37.219Z,99730.00
2023-04-01T05:07:09.199Z,99716.75
2023-04-01T05:09:43.387Z,99732.84
2023-04-01T05:12:16.643Z,99733.22
2023-04-01T05:15:02.090Z,99727.56
2023-04-01T05:17:29.986Z,99730.81
2023-04-01T05:19:58.005Z,99714.69
2023-04-01T05:22:26.612Z,99715.47
2023-04-01T05:24:54.300Z,99715.09
2023-04-01T05:27:24.721Z,99725.97
2023-04-01T05:29:57.607Z,99718.34
2023-04-01T05:32:41.446Z,99721.16
2023-04-01T05:35:12.542Z,99728.81
2023-04-01T05:37:41.434Z,99735.22
2023-04-01T05:40:10.447Z,99727.19
2023-04-01T05:42:38.522Z,99724.75
2023-04-01T05:45:08.684Z,99738.03
2023-04-01T05:47:55.040Z,99744.13
2023-04-01T05:50:23.046Z,99750.56
2023-04-01T05:52:50.418Z,99747.34
2023-04-01T05:55:21.832Z,99743.72
2023-04-01T05:57:51.443Z,99739.28
2023-04-01T06:00:22.209Z,99733.19
2023-04-01T06:02:53.566Z,99744.47
2023-04-01T06:05:28.275Z,99739.28
2023-04-01T06:08:00.321Z,99735.22
2023-04-01T06:10:42.545Z,99743.66
2023-04-01T06:13:27.714Z,99743.63
2023-04-01T06:16:07.157Z,99742.84
2023-04-01T06:18:39.500Z,99746.81
2023-04-01T06:21:35.930Z,99747.25
2023-04-01T06:24:16.668Z,99759.34
2023-04-01T06:26:58.829Z,99736.72
2023-04-01T06:29:51.703Z,99743.97
2023-04-01T06:32:37.322Z,99750.44
2023-04-01T06:35:32.984Z,99762.91
2023-04-01T06:38:15.677Z,99771.75
2023-04-01T06:41:11.974Z,99770.91
2023-04-01T06:44:03.512Z,99771.66
2023-04-01T06:47:03.269Z,99778.94
2023-04-01T06:50:08.198Z,99770.53
2023-04-01T06:53:10.557Z,99767.66
2023-04-01T06:56:08.619Z,99774.41
2023-04-01T06:59:05.686Z,99778.78
2023-04-01T07:01:41.316Z,99769.03
2023-04-01T07:04:21.857Z,99774.78
2023-04-01T07:06:53.391Z,99776.28
2023-04-01T07:09:27.404Z,99777.00
2023-04-01T07:12:30.400Z,99779.78
2023-04-01T07:15:37.395Z,99782.19
2023-04-01T07:18:19.330Z,99784.56
2023-04-01T07:20:48.080Z,99786.16
2023-04-01T07:23:25.783Z,99776.97
2023-04-01T07:26:28.152Z,99782.63
2023-04-01T07:29:14.839Z,99782.22
2023-04-01T07:32:08.850Z,99776.97
2023-04-01T07:34:47.366Z,99784.56
2023-04-01T07:37:53.369Z,99782.97
2023-04-01T07:40:45.046Z,99781.31
2023-04-01T07:43:39.581Z,99777.38
2023-04-01T07:46:50.468Z,99788.16
2023-04-01T07:49:41.052Z,99791.06
2023-04-01T07:52:30.415Z,99794.56
2023-04-01T07:55:18.774Z,99797.22
2023-04-01T07:57:50.393Z,99795.09
2023-04-01T08:00:26.800Z,99790.59
2023-04-01T08:03:21.540Z,99792.16
2023-04-01T08:06:01.311Z,99798.25
2023-04-01T08:08:52.941Z,99797.84
2023-04-01T08:12:20.409Z,99794.66
2023-04-01T08:15:28.629Z,99787.06
2023-04-01T08:18:55.050Z,99798.28
2023-04-01T08:21:33.675Z,99792.31
2023-04-01T08:24:29.774Z,99789.69
2023-04-01T08:27:10.699Z,99788.19
2023-04-01T08:29:49.984Z,99794.53
2023-04-01T08:32:23.230Z,99780.00
2023-04-01T08:35:02.209Z,99786.22
2023-04-01T08:37:42.838Z,99781.31
2023-04-01T08:40:16.246Z,99788.78
2023-04-01T08:43:14.150Z,99779.84
2023-04-01T08:45:56.980Z,99781.06
2023-04-01T08:48:47.797Z,99782.69
2023-04-01T08:51:43.534Z,99786.69
2023-04-01T08:54:36.292Z,99795.25
2023-04-01T08:57:49.530Z,99794.06
2023-04-01T09:00:53.749Z,99797.94
2023-04-01T09:03:59.540Z,99804.25
2023-04-01T09:06:38.816Z,99803.41
2023-04-01T09:09:22.835Z,99803.78
2023-04-01T09:11:59.064Z,99808.72
2023-04-01T09:15:00.382Z,99811.88
2023-04-01T09:17:58.737Z,99807.50
2023-04-01T09:21:09.954Z,99816.59
2023-04-01T09:23:56.028Z,99801.59
2023-04-01T09:26:45.447Z,99806.13
2023-04-01T09:29:46.493Z,99802.91
2023-04-01T09:32:44.283Z,99785.06
2023-04-01T09:35:43.410Z,99788.66
2023-04-01T09:38:41.317Z,99781.97
2023-04-01T09:41:23.197Z,99796.50
2023-04-01T09:44:22.694Z,99800.06
2023-04-01T09:47:16.403Z,99792.78
2023-04-01T09:50:22.396Z,99800.41
2023-04-01T09:53:15.629Z,99795.06
2023-04-01T09:56:01.950Z,99794.31
2023-04-01T09:58:59.234Z,99801.56
2023-04-01T10:01:58.940Z,99796.28
2023-04-01T10:04:38.313Z,99795.88
2023-04-01T10:07:23.700Z,99789.00
2023-04-01T10:10:23.466Z,99782.88
2023-04-01T10:13:05.615Z,99780.66
2023-04-01T10:15:37.258Z,99785.94
2023-04-01T10:18:51.618Z,99784.59
2023-04-01T10:21:22.880Z,99778.13
2023-04-01T10:24:26.577Z,99778.47
2023-04-01T10:27:24.323Z,99780.56
2023-04-01T10:31:05.219Z,99770.88
2023-04-01T10:34:19.716Z,99777.34
2023-04-01T10:37:06.004Z,99777.34
2023-04-01T10:40:23.728Z,99769.59
2023-04-01T10:43:38.742Z,99766.41
2023-04-01T10:46:41.551Z,99763.00
2023-04-01T10:49:41.499Z,99771.56
2023-04-01T10:52:30.480Z,99768.34
2023-04-01T10:55:35.914Z,99757.06
2023-04-01T10:58:50.571Z,99763.59
2023-04-01T11:02:11.848Z,99761.88
2023-04-01T11:05:42.122Z,99748.47
2023-04-01T11:09:09.773Z,99746.06
2023-04-01T11:12:06.156Z,99737.91
2023-04-01T11:15:06.582Z,99745.66
2023-04-01T11:18:02.648Z,99746.03
2023-04-01T11:20:33.209Z,99745.69
2023-04-01T11:23:29.365Z,99748.75
2023-04-01T11:25:59.438Z,99747.97
2023-04-01T11:29:33.799Z,99745.53
2023-04-01T11:32:48.897Z,99740.38
2023-04-01T11:35:35.576Z,99736.31
2023-04-01T11:38:23.388Z,99746.31
2023-04-01T11:41:01.721Z,99734.59
2023-04-01T11:44:20.590Z,99741.44
2023-04-01T11:47:57.599Z,99729.72
2023-04-01T11:50:39.368Z,99729.41
2023-04-01T11:53:18.519Z,99722.84
2023-04-01T11:55:53.949Z,99725.41
2023-04-01T11:58:35.312Z,99726.16
2023-04-01T12:01:11.155Z,99719.16
2023-04-01T12:04:08.119Z,99714.03
2023-04-01T12:07:00.867Z,99717.28
2023-04-01T12:09:49.586Z,99717.97
2023-04-01T12:12:27.768Z,99712.38
2023-04-01T12:15:11.889Z,99710.84
2023-04-01T12:18:29.786Z,99719.81
2023-04-01T12:21:23.379Z,99716.56
2023-04-01T12:24:12.558Z,99714.91
2023-04-01T12:26:49.078Z,99722.50
2023-04-01T12:29:25.875Z,99711.47
2023-04-01T12:32:04.242Z,99714.34
2023-04-01T12:34:49.867Z,99706.84
2023-04-01T12:37:32.478Z,99710.09
2023-04-01T12:40:19.017Z,99701.63
2023-04-01T12:42:55.377Z,99707.28
2023-04-01T12:45:31.296Z,99702.88
2023-04-01T12:48:06.302Z,99702.56
2023-04-01T12:50:43.091Z,99698.88
2023-04-01T12:53:19.434Z,99698.03
2023-04-01T12:55:53.734Z,99699.72
2023-04-01T12:58:39.437Z,99689.97
2023-04-01T13:01:36.168Z,99692.00
2023-04-01T13:04:33.370Z,99682.03
2023-04-01T13:07:26.212Z,99691.75
2023-04-01T13:09:56.618Z,99683.94
2023-04-01T13:12:53.033Z,99682.66
2023-04-01T13:15:32.708Z,99673.75
2023-04-01T13:18:23.478Z,99679.00
2023-04-01T13:21:22.822Z,99675.72
2023-04-01T13:24:05.426Z,99671.72
2023-04-01T13:26:53.795Z,99664.00
2023-04-01T13:29:50.122Z,99655.97
2023-04-01T13:32:42.941Z,99657.94
2023-04-01T13:35:23.095Z,99663.28
2023-04-01T13:37:58.987Z,99651.91
2023-04-01T13:40:55.766Z,99646.75
2023-04-01T13:43:49.363Z,99641.50
2023-04-01T13:47:08.129Z,99638.75
2023-04-01T13:49:54.290Z,99628.47
2023-04-01T13:52:33.334Z,99625.28
2023-04-01T13:55:20.635Z,99629.13
2023-04-01T13:58:08.958Z,99622.56
2023-04-01T14:01:06.455Z,99614.03
2023-04-01T14:04:07.186Z,99624.19
2023-04-01T14:06:59.583Z,99620.50
2023-04-01T14:09:42.240Z,99612.44
2023-04-01T14:12:51.550Z,99605.84
2023-04-01T14:15:39.954Z,99610.72
2023-04-01T14:18:13.548Z,99610.84
2023-04-01T14:20:52.824Z,99610.03
2023-04-01T14:23:26.155Z,99607.69
2023-04-01T14:26:05.405Z,99602.84
2023-04-01T14:28:41.466Z,99596.44
2023-04-01T14:31:30.775Z,99600.44
2023-04-01T14:34:10.213Z,99596.84
2023-04-01T14:37:02.639Z,99594.41
2023-04-01T14:39:49.004Z,99585.91
2023-04-01T14:42:28.950Z,99591.19
2023-04-01T14:45:34.168Z,99583.03
2023-04-01T14:48:07.776Z,99587.91
2023-04-01T14:50:43.053Z,99574.94
2023-04-01T14:53:34.807Z,99581.00
2023-04-01T14:56:03.952Z,99576.63
2023-04-01T14:59:00.932Z,99574.59
2023-04-01T15:01:33.549Z,99577.03
2023-04-01T15:04:30.655Z,99574.53
2023-04-01T15:07:28.952Z,99566.06
2023-04-01T15:10:47.260Z,99569.28
2023-04-01T15:13:33.993Z,99565.66
2023-04-01T15:16:39.165Z,99563.28
2023-04-01T15:19:22.014Z,99565.72
2023-04-01T15:22:30.965Z,99560.47
2023-04-01T15:25:21.692Z,99556.00
2023-04-01T15:28:07.554Z,99555.59
2023-04-01T15:30:59.717Z,99551.13
2023-04-01T15:33:49.209Z,99564.88
2023-04-01T15:36:21.807Z,99555.53
2023-04-01T15:39:12.905Z,99568.53
2023-04-01T15:42:07.424Z,99565.28
2023-04-01T15:44:58.813Z,99572.16
2023-04-01T15:47:28.821Z,99568.03
2023-04-01T15:50:11.646Z,99573.75
2023-04-01T15:52:52.176Z,99579.78
2023-04-01T15:55:22.178Z,99573.75
2023-04-01T15:58:20.582Z,99575.00
2023-04-01T16:01:05.553Z,99567.31
2023-04-01T16:04:00.831Z,99578.16
2023-04-01T16:06:54.291Z,99575.78
2023-04-01T16:09:32.357Z,99572.09
2023-04-01T16:12:24.805Z,99561.19
2023-04-01T16:15:33.806Z,99560.34
2023-04-01T16:18:54.625Z,99558.69
2023-04-01T16:21:53.005Z,99553.47
2023-04-01T16:24:31.567Z,99560.34
2023-04-01T16:27:11.977Z,99563.97
2023-04-01T16:29:45.685Z,99551.78
2023-04-01T16:32:50.741Z,99560.66
2023-04-01T16:35:53.641Z,99555.84
2023-04-01T16:38:38.795Z,99555.00
2023-04-01T16:41:15.728Z,99554.19
2023-04-01T16:43:48.840Z,99555.84
2023-04-01T16:46:36.160Z,99554.28
2023-04-01T16:49:12.730Z,99561.03
2023-04-01T16:51:52.901Z,99557.38
2023-04-01T16:54:40.642Z,99553.75
2023-04-01T16:57:17.267Z,99557.38
2023-04-01T17:00:05.394Z,99550.06
2023-04-01T17:02:55.861Z,99557.69
2023-04-01T17:05:41.077Z,99555.38
2023-04-01T17:08:27.157Z,99558.06
2023-04-01T17:11:04.604Z,99558.78
2023-04-01T17:13:58.778Z,99557.53
2023-04-01T17:16:46.287Z,99563.97
2023-04-01T17:19:44.497Z,99560.38
2023-04-01T17:22:24.982Z,99563.66
2023-04-01T17:25:11.311Z,99563.72
2023-04-01T17:27:57.614Z,99570.97
2023-04-01T17:31:01.646Z,99569.81
2023-04-01T17:33:37.028Z,99578.34
2023-04-01T17:36:17.662Z,99572.34
2023-04-01T17:39:06.228Z,99579.28
2023-04-01T17:41:58.055Z,99578.09
2023-04-01T17:45:05.960Z,99577.25
2023-04-01T17:47:59.548Z,99578.16
2023-04-01T17:50:37.564Z,99585.91
2023-04-01T17:53:10.708Z,99585.13
2023-04-01T17:55:52.356Z,99585.91
2023-04-01T17:58:41.025Z,99592.03
2023-04-01T18:01:50.388Z,99601.66
2023-04-01T18:04:33.001Z,99612.16
2023-04-01T18:07:20.058Z,99616.22
2023-04-01T18:10:18.581Z,99607.38
2023-04-01T18:12:52.842Z,99617.81
2023-04-01T18:15:24.680Z,99615.44
2023-04-01T18:17:58.289Z,99619.06
2023-04-01T18:21:01.410Z,99627.09
2023-04-01T18:23:37.409Z,99627.88
2023-04-01T18:26:14.694Z,99630.63
2023-04-01T18:28:57.536Z,99631.84
2023-04-01T18:31:38.048Z,99634.25
2023-04-01T18:34:29.960Z,99642.38
2023-04-01T18:37:12.179Z,99644.06
2023-04-01T18:39:47.563Z,99645.78
2023-04-01T18:42:29.605Z,99649.84
2023-04-01T18:45:35.591Z,99648.63
2023-04-01T18:48:14.732Z,99651.16
2023-04-01T18:50:58.249Z,99656.34
2023-04-01T18:53:48.489Z,99661.59
2023-04-01T18:56:48.376Z,99669.81
2023-04-01T18:59:54.453Z,99671.91
2023-04-01T19:02:41.472Z,99663.41
2023-04-01T19:05:27.461Z,99676.31
2023-04-01T19:07:57.433Z,99671.50
2023-04-01T19:10:34.685Z,99670.28
2023-04-01T19:13:53.541Z,99673.91
2023-04-01T19:16:36.408Z,99677.97
2023-04-01T19:19:31.608Z,99682.81
2023-04-01T19:22:38.179Z,99684.91
2023-04-01T19:25:39.162Z,99690.13
2023-04-01T19:28:25.582Z,99695.38
2023-04-01T19:31:03.764Z,99701.03
2023-04-01T19:33:34.240Z,99699.78
2023-04-01T19:36:37.185Z,99707.03
2023-04-01T19:39:32.195Z,99704.66
2023-04-01T19:42:28.952Z,99708.31
2023-04-01T19:44:56.716Z,99708.38
2023-04-01T19:47:35.851Z,99709.91
2023-04-01T19:50:21.888Z,99712.78
2023-04-01T19:52:51.756Z,99718.44
2023-04-01T19:55:40.858Z,99716.81
2023-04-01T19:58:22.074Z,99713.59
2023-04-01T20:00:55.193Z,99721.22
2023-04-01T20:03:27.712Z,99719.69
2023-04-01T20:06:01.144Z,99719.69
2023-04-01T20:08:56.324Z,99718.50
2023-04-01T20:12:02.681Z,99718.88
2023-04-01T20:14:40.231Z,99715.69
2023-04-01T20:17:15.070Z,99714.56
2023-04-01T20:19:52.544Z,99716.16
2023-04-01T20:22:44.534Z,99717.72
2023-04-01T20:25:30.566Z,99710.88
2023-04-01T20:28:10.962Z,99711.69
2023-04-01T20:30:38.399Z,99718.06
2023-04-01T20:33:43.158Z,99722.09
2023-04-01T20:36:26.061Z,99720.09
2023-04-01T20:38:53.866Z,99720.94
2023-04-01T20:41:27.729Z,99729.47
2023-04-01T20:44:14.276Z,99725.00
2023-04-01T20:47:11.992Z,99721.75
2023-04-01T20:49:47.299Z,99732.31
2023-04-01T20:52:14.855Z,99728.25
2023-04-01T20:55:23.920Z,99727.84
2023-04-01T20:58:13.083Z,99735.53
2023-04-01T21:01:06.356Z,99736.38
2023-04-01T21:04:09.544Z,99740.78
2023-04-01T21:06:53.680Z,99744.41
2023-04-01T21:09:43.107Z,99751.69
2023-04-01T21:12:32.110Z,99756.19
2023-04-01T21:15:35.626Z,99754.25
2023-04-01T21:18:21.734Z,99760.22
2023-04-01T21:21:06.500Z,99765.13
2023-04-01T21:24:11.540Z,99776.38
2023-04-01T21:27:02.455Z,99784.06
2023-04-01T21:29:37.731Z,99777.63
2023-04-01T21:32:20.594Z,99782.78
2023-04-01T21:35:07.460Z,99785.66
2023-04-01T21:37:51.789Z,99777.66
2023-04-01T21:40:50.112Z,99784.50
2023-04-01T21:43:22.099Z,99782.50
2023-04-01T21:46:10.961Z,99785.34
2023-04-01T21:48:47.416Z,99786.50
2023-04-01T21:51:34.396Z,99790.56
2023-04-01T21:54:18.937Z,99780.88
2023-04-01T21:57:16.487Z,99780.84
2023-04-01T22:00:12.379Z,99781.19
2023-04-01T22:02:58.733Z,99779.66
2023-04-01T22:05:41.559Z,99778.03
2023-04-01T22:08:31.505Z,99778.88
2023-04-01T22:11:18.122Z,99776.88
2023-04-01T22:14:24.675Z,99770.38
2023-04-01T22:17:04.598Z,99780.50
2023-04-01T22:19:47.738Z,99779.34
2023-04-01T22:22:49.472Z,99766.81
2023-04-01T22:25:43.618Z,99770.88
2023-04-01T22:28:36.185Z,99774.88
2023-04-01T22:31:13.441Z,99770.88
2023-04-01T22:33:41.194Z,99773.69
2023-04-01T22:36:27.495Z,99778.59
2023-04-01T22:39:24.542Z,99787.50
2023-04-01T22:42:02.662Z,99793.13
2023-04-01T22:44:41.884Z,99781.81
2023-04-01T22:47:24.738Z,99791.53
2023-04-01T22:50:04.981Z,99786.28
2023-04-01T22:52:42.760Z,99782.25
2023-04-01T22:55:26.726Z,99786.28
2023-04-01T22:58:05.764Z,99783.09
2023-04-01T23:00:55.792Z,99786.28
2023-04-01T23:03:30.970Z,99791.19
2023-04-01T23:06:01.291Z,99777.44
2023-04-01T23:08:57.020Z,99784.72
2023-04-01T23:11:30.868Z,99780.25
2023-04-01T23:14:29.978Z,99794.41
2023-04-01T23:17:23.746Z,99789.94
2023-04-01T23:19:57.505Z,99788.78
2023-04-01T23:22:38.208Z,99792.41
2023-04-01T23:25:31.229Z,99792.78
2023-04-01T23:28:17.159Z,99783.88
2023-04-01T23:30:49.208Z,99787.13
2023-04-01T23:33:19.789Z,99785.97
2023-04-01T23:35:53.086Z,99796.44
2023-04-01T23:38:26.598Z,99799.25
2023-04-01T23:40:56.492Z,99788.75
2023-04-01T23:43:34.604Z,99798.00
2023-04-01T23:46:07.048Z,99792.78
2023-04-01T23:48:39.117Z,99798.41
2023-04-01T23:51:17.460Z,99799.69
2023-04-01T23:53:50.328Z,99799.69
2023-04-01T23:56:19.036Z,99810.19
2023-04-01T23:58:56.501Z,99808.16
